sensor_id;sensor_type;location;lat;lon;timestamp;temperature;humidity
78366;HTU21D;67641;59.864;30.464;2023-06-26T00:02:16;24.69;36.75
78366;HTU21D;67641;59.864;30.464;2023-06-26T00:04:43;24.68;36.88
78366;HTU21D;67641;59.864;30.464;2023-06-26T00:07:11;24.68;36.57
78366;HTU21D;67641;59.864;30.464;2023-06-26T00:10:43;24.63;36.77
78366;HTU21D;67641;59.864;30.464;2023-06-26T00:13:09;24.57;37.37
78366;HTU21D;67641;59.864;30.464;2023-06-26T00:15:38;24.55;36.20
78366;HTU21D;67641;59.864;30.464;2023-06-26T00:18:05;24.56;36.69
78366;HTU21D;67641;59.864;30.464;2023-06-26T00:20:32;24.62;36.62
78366;HTU21D;67641;59.864;30.464;2023-06-26T00:23:00;24.61;36.08
78366;HTU21D;67641;59.864;30.464;2023-06-26T00:25:27;24.60;36.29
78366;HTU21D;67641;59.864;30.464;2023-06-26T00:30:35;24.60;36.30
78366;HTU21D;67641;59.864;30.464;2023-06-26T00:33:02;24.61;36.36
78366;HTU21D;67641;59.864;30.464;2023-06-26T00:35:29;24.53;36.43
78366;HTU21D;67641;59.864;30.464;2023-06-26T00:37:56;24.49;36.41
78366;HTU21D;67641;59.864;30.464;2023-06-26T00:40:23;24.47;36.58
78366;HTU21D;67641;59.864;30.464;2023-06-26T00:42:51;24.47;36.25
78366;HTU21D;67641;59.864;30.464;2023-06-26T00:45:19;24.46;36.59
78366;HTU21D;67641;59.864;30.464;2023-06-26T00:47:46;24.40;36.36
78366;HTU21D;67641;59.864;30.464;2023-06-26T00:50:34;24.40;36.37
78366;HTU21D;67641;59.864;30.464;2023-06-26T00:53:01;24.39;36.26
78366;HTU21D;67641;59.864;30.464;2023-06-26T00:55:27;24.36;35.98
78366;HTU21D;67641;59.864;30.464;2023-06-26T00:57:55;24.33;35.95
78366;HTU21D;67641;59.864;30.464;2023-06-26T01:00:22;24.30;35.52
78366;HTU21D;67641;59.864;30.464;2023-06-26T01:02:49;24.28;36.11
78366;HTU21D;67641;59.864;30.464;2023-06-26T01:05:15;24.17;36.25
78366;HTU21D;67641;59.864;30.464;2023-06-26T01:07:49;24.13;36.35
78366;HTU21D;67641;59.864;30.464;2023-06-26T01:10:48;24.10;36.00
78366;HTU21D;67641;59.864;30.464;2023-06-26T01:13:15;24.06;35.56
78366;HTU21D;67641;59.864;30.464;2023-06-26T01:15:42;24.06;36.20
78366;HTU21D;67641;59.864;30.464;2023-06-26T01:18:08;24.08;35.71
78366;HTU21D;67641;59.864;30.464;2023-06-26T01:20:39;24.16;35.91
78366;HTU21D;67641;59.864;30.464;2023-06-26T01:23:22;24.23;35.34
78366;HTU21D;67641;59.864;30.464;2023-06-26T01:28:35;24.30;35.18
78366;HTU21D;67641;59.864;30.464;2023-06-26T01:31:19;24.31;35.24
78366;HTU21D;67641;59.864;30.464;2023-06-26T01:33:46;24.32;34.15
78366;HTU21D;67641;59.864;30.464;2023-06-26T01:36:13;24.33;33.80
78366;HTU21D;67641;59.864;30.464;2023-06-26T01:38:40;24.36;33.81
78366;HTU21D;67641;59.864;30.464;2023-06-26T01:41:06;24.38;33.80
78366;HTU21D;67641;59.864;30.464;2023-06-26T01:46:16;24.39;34.36
78366;HTU21D;67641;59.864;30.464;2023-06-26T01:49:01;24.42;33.82
78366;HTU21D;67641;59.864;30.464;2023-06-26T01:52:14;24.41;33.87
78366;HTU21D;67641;59.864;30.464;2023-06-26T01:57:20;24.43;33.03
78366;HTU21D;67641;59.864;30.464;2023-06-26T01:59:50;24.43;33.02
78366;HTU21D;67641;59.864;30.464;2023-06-26T02:02:17;24.47;32.34
78366;HTU21D;67641;59.864;30.464;2023-06-26T02:04:43;24.50;31.82
78366;HTU21D;67641;59.864;30.464;2023-06-26T02:07:10;24.51;32.82
78366;HTU21D;67641;59.864;30.464;2023-06-26T02:09:37;24.46;33.10
78366;HTU21D;67641;59.864;30.464;2023-06-26T02:12:29;24.44;33.70
78366;HTU21D;67641;59.864;30.464;2023-06-26T02:14:55;24.44;33.79
78366;HTU21D;67641;59.864;30.464;2023-06-26T02:17:21;24.44;33.51
78366;HTU21D;67641;59.864;30.464;2023-06-26T02:19:48;24.39;33.38
78366;HTU21D;67641;59.864;30.464;2023-06-26T02:22:16;24.35;33.47
78366;HTU21D;67641;59.864;30.464;2023-06-26T02:24:43;24.31;33.33
78366;HTU21D;67641;59.864;30.464;2023-06-26T02:27:10;24.32;32.99
78366;HTU21D;67641;59.864;30.464;2023-06-26T02:29:36;24.28;33.34
78366;HTU21D;67641;59.864;30.464;2023-06-26T02:33:42;24.26;34.25
78366;HTU21D;67641;59.864;30.464;2023-06-26T02:36:08;24.26;34.40
78366;HTU21D;67641;59.864;30.464;2023-06-26T02:38:35;24.15;33.47
78366;HTU21D;67641;59.864;30.464;2023-06-26T02:41:01;24.18;33.84
78366;HTU21D;67641;59.864;30.464;2023-06-26T02:43:28;24.19;34.47
78366;HTU21D;67641;59.864;30.464;2023-06-26T02:45:54;24.23;33.05
78366;HTU21D;67641;59.864;30.464;2023-06-26T02:48:24;24.23;33.60
78366;HTU21D;67641;59.864;30.464;2023-06-26T02:50:51;24.20;34.28
78366;HTU21D;67641;59.864;30.464;2023-06-26T02:54:09;24.21;33.34
78366;HTU21D;67641;59.864;30.464;2023-06-26T02:56:36;24.20;34.41
78366;HTU21D;67641;59.864;30.464;2023-06-26T02:59:04;24.19;34.66
78366;HTU21D;67641;59.864;30.464;2023-06-26T03:01:31;24.17;34.76
78366;HTU21D;67641;59.864;30.464;2023-06-26T03:03:57;24.17;33.97
78366;HTU21D;67641;59.864;30.464;2023-06-26T03:06:23;24.18;34.60
78366;HTU21D;67641;59.864;30.464;2023-06-26T03:08:50;24.14;34.75
78366;HTU21D;67641;59.864;30.464;2023-06-26T03:11:17;24.11;34.86
78366;HTU21D;67641;59.864;30.464;2023-06-26T03:14:04;24.15;34.79
78366;HTU21D;67641;59.864;30.464;2023-06-26T03:16:31;24.15;34.95
78366;HTU21D;67641;59.864;30.464;2023-06-26T03:18:57;24.17;35.47
78366;HTU21D;67641;59.864;30.464;2023-06-26T03:21:24;24.17;36.18
78366;HTU21D;67641;59.864;30.464;2023-06-26T03:23:50;24.20;36.61
78366;HTU21D;67641;59.864;30.464;2023-06-26T03:26:17;24.20;37.14
78366;HTU21D;67641;59.864;30.464;2023-06-26T03:28:43;24.24;35.96
78366;HTU21D;67641;59.864;30.464;2023-06-26T03:31:10;24.29;37.46
78366;HTU21D;67641;59.864;30.464;2023-06-26T03:34:30;24.32;37.23
78366;HTU21D;67641;59.864;30.464;2023-06-26T03:36:57;24.38;37.48
78366;HTU21D;67641;59.864;30.464;2023-06-26T03:39:23;24.43;36.32
78366;HTU21D;67641;59.864;30.464;2023-06-26T03:41:50;24.46;36.22
78366;HTU21D;67641;59.864;30.464;2023-06-26T03:44:16;24.53;37.10
78366;HTU21D;67641;59.864;30.464;2023-06-26T03:46:43;24.59;36.88
78366;HTU21D;67641;59.864;30.464;2023-06-26T03:49:09;24.64;38.41
78366;HTU21D;67641;59.864;30.464;2023-06-26T03:54:28;24.76;38.30
78366;HTU21D;67641;59.864;30.464;2023-06-26T03:56:55;24.79;39.20
78366;HTU21D;67641;59.864;30.464;2023-06-26T03:59:22;24.84;39.13
78366;HTU21D;67641;59.864;30.464;2023-06-26T04:01:49;24.89;39.35
78366;HTU21D;67641;59.864;30.464;2023-06-26T04:04:15;24.94;39.07
78366;HTU21D;67641;59.864;30.464;2023-06-26T04:06:42;24.98;39.92
78366;HTU21D;67641;59.864;30.464;2023-06-26T04:09:08;25.01;40.55
78366;HTU21D;67641;59.864;30.464;2023-06-26T04:11:35;25.04;40.43
78366;HTU21D;67641;59.864;30.464;2023-06-26T04:16:11;25.14;40.19
78366;HTU21D;67641;59.864;30.464;2023-06-26T04:18:38;25.18;40.68
78366;HTU21D;67641;59.864;30.464;2023-06-26T04:21:12;25.21;41.34
78366;HTU21D;67641;59.864;30.464;2023-06-26T04:23:40;25.28;42.07
78366;HTU21D;67641;59.864;30.464;2023-06-26T04:26:07;25.32;40.68
78366;HTU21D;67641;59.864;30.464;2023-06-26T04:28:35;25.35;40.90
78366;HTU21D;67641;59.864;30.464;2023-06-26T04:31:02;25.37;41.55
78366;HTU21D;67641;59.864;30.464;2023-06-26T04:36:09;25.39;38.19
78366;HTU21D;67641;59.864;30.464;2023-06-26T04:38:35;25.44;38.17
78366;HTU21D;67641;59.864;30.464;2023-06-26T04:41:02;25.51;38.16
78366;HTU21D;67641;59.864;30.464;2023-06-26T04:43:29;25.57;38.46
78366;HTU21D;67641;59.864;30.464;2023-06-26T04:45:56;25.62;37.56
78366;HTU21D;67641;59.864;30.464;2023-06-26T04:48:22;25.66;38.22
78366;HTU21D;67641;59.864;30.464;2023-06-26T04:50:49;25.71;38.04
78366;HTU21D;67641;59.864;30.464;2023-06-26T04:53:21;25.72;39.98
78366;HTU21D;67641;59.864;30.464;2023-06-26T04:57:52;25.76;39.66
78366;HTU21D;67641;59.864;30.464;2023-06-26T05:00:19;25.81;40.76
78366;HTU21D;67641;59.864;30.464;2023-06-26T05:02:46;25.84;38.77
78366;HTU21D;67641;59.864;30.464;2023-06-26T05:05:12;25.84;41.32
78366;HTU21D;67641;59.864;30.464;2023-06-26T05:07:41;25.79;42.45
78366;HTU21D;67641;59.864;30.464;2023-06-26T05:10:08;25.81;43.51
78366;HTU21D;67641;59.864;30.464;2023-06-26T05:12:35;25.83;41.42
78366;HTU21D;67641;59.864;30.464;2023-06-26T05:15:02;25.88;40.50
78366;HTU21D;67641;59.864;30.464;2023-06-26T05:18:36;25.93;35.34
78366;HTU21D;67641;59.864;30.464;2023-06-26T05:21:03;25.95;35.56
78366;HTU21D;67641;59.864;30.464;2023-06-26T05:23:33;25.97;35.05
78366;HTU21D;67641;59.864;30.464;2023-06-26T05:26:01;26.01;34.67
78366;HTU21D;67641;59.864;30.464;2023-06-26T05:28:29;26.04;35.50
78366;HTU21D;67641;59.864;30.464;2023-06-26T05:30:58;26.04;35.68
78366;HTU21D;67641;59.864;30.464;2023-06-26T05:33:26;26.06;36.53
78366;HTU21D;67641;59.864;30.464;2023-06-26T05:35:53;26.10;35.28
78366;HTU21D;67641;59.864;30.464;2023-06-26T05:38:49;26.12;35.04
78366;HTU21D;67641;59.864;30.464;2023-06-26T05:41:16;26.18;34.86
78366;HTU21D;67641;59.864;30.464;2023-06-26T05:43:43;26.19;34.80
78366;HTU21D;67641;59.864;30.464;2023-06-26T05:46:10;26.19;32.76
78366;HTU21D;67641;59.864;30.464;2023-06-26T05:48:36;26.21;32.61
78366;HTU21D;67641;59.864;30.464;2023-06-26T05:51:03;26.24;31.91
78366;HTU21D;67641;59.864;30.464;2023-06-26T05:53:30;26.25;33.73
78366;HTU21D;67641;59.864;30.464;2023-06-26T05:55:57;26.27;31.57
78366;HTU21D;67641;59.864;30.464;2023-06-26T05:59:33;26.32;30.83
78366;HTU21D;67641;59.864;30.464;2023-06-26T06:02:01;26.30;32.07
78366;HTU21D;67641;59.864;30.464;2023-06-26T06:04:29;26.28;31.62
78366;HTU21D;67641;59.864;30.464;2023-06-26T06:06:55;26.30;31.99
78366;HTU21D;67641;59.864;30.464;2023-06-26T06:09:21;26.26;31.32
78366;HTU21D;67641;59.864;30.464;2023-06-26T06:11:48;26.25;31.64
78366;HTU21D;67641;59.864;30.464;2023-06-26T06:14:15;26.30;30.54
78366;HTU21D;67641;59.864;30.464;2023-06-26T06:16:41;26.33;32.09
78366;HTU21D;67641;59.864;30.464;2023-06-26T06:20:45;26.36;33.96
78366;HTU21D;67641;59.864;30.464;2023-06-26T06:23:12;26.36;33.21
78366;HTU21D;67641;59.864;30.464;2023-06-26T06:25:38;26.35;31.35
78366;HTU21D;67641;59.864;30.464;2023-06-26T06:28:05;26.34;33.83
78366;HTU21D;67641;59.864;30.464;2023-06-26T06:30:32;26.32;32.99
78366;HTU21D;67641;59.864;30.464;2023-06-26T06:32:58;26.30;29.63
78366;HTU21D;67641;59.864;30.464;2023-06-26T06:35:25;26.30;32.62
78366;HTU21D;67641;59.864;30.464;2023-06-26T06:37:52;26.28;31.66
78366;HTU21D;67641;59.864;30.464;2023-06-26T06:42:28;26.36;32.80
78366;HTU21D;67641;59.864;30.464;2023-06-26T06:44:55;26.38;33.42
78366;HTU21D;67641;59.864;30.464;2023-06-26T06:47:21;26.38;35.53
78366;HTU21D;67641;59.864;30.464;2023-06-26T06:49:48;26.42;33.34
78366;HTU21D;67641;59.864;30.464;2023-06-26T06:52:14;26.41;31.44
78366;HTU21D;67641;59.864;30.464;2023-06-26T06:55:00;26.42;33.96
78366;HTU21D;67641;59.864;30.464;2023-06-26T06:57:37;26.47;35.06
78366;HTU21D;67641;59.864;30.464;2023-06-26T07:02:39;26.48;35.31
78366;HTU21D;67641;59.864;30.464;2023-06-26T07:05:06;26.50;32.26
78366;HTU21D;67641;59.864;30.464;2023-06-26T07:07:33;26.52;32.04
78366;HTU21D;67641;59.864;30.464;2023-06-26T07:10:03;26.52;27.46
78366;HTU21D;67641;59.864;30.464;2023-06-26T07:12:30;26.54;27.54
78366;HTU21D;67641;59.864;30.464;2023-06-26T07:14:57;26.62;29.63
78366;HTU21D;67641;59.864;30.464;2023-06-26T07:17:23;26.63;27.46
78366;HTU21D;67641;59.864;30.464;2023-06-26T07:19:50;26.63;24.60
78366;HTU21D;67641;59.864;30.464;2023-06-26T07:23:20;26.70;30.16
78366;HTU21D;67641;59.864;30.464;2023-06-26T07:25:47;26.75;28.30
78366;HTU21D;67641;59.864;30.464;2023-06-26T07:28:14;26.77;26.35
78366;HTU21D;67641;59.864;30.464;2023-06-26T07:30:41;26.80;30.14
78366;HTU21D;67641;59.864;30.464;2023-06-26T07:33:07;26.86;29.97
78366;HTU21D;67641;59.864;30.464;2023-06-26T07:35:34;26.89;29.29
78366;HTU21D;67641;59.864;30.464;2023-06-26T07:38:00;26.91;34.79
78366;HTU21D;67641;59.864;30.464;2023-06-26T07:40:27;26.93;35.01
78366;HTU21D;67641;59.864;30.464;2023-06-26T07:44:20;26.95;32.88
78366;HTU21D;67641;59.864;30.464;2023-06-26T07:46:47;26.99;33.54
78366;HTU21D;67641;59.864;30.464;2023-06-26T07:49:13;27.02;33.12
78366;HTU21D;67641;59.864;30.464;2023-06-26T07:51:40;27.06;34.43
78366;HTU21D;67641;59.864;30.464;2023-06-26T07:54:07;27.11;34.20
78366;HTU21D;67641;59.864;30.464;2023-06-26T07:57:01;27.16;33.71
78366;HTU21D;67641;59.864;30.464;2023-06-26T07:59:29;27.22;36.11
78366;HTU21D;67641;59.864;30.464;2023-06-26T08:01:56;27.26;34.37
78366;HTU21D;67641;59.864;30.464;2023-06-26T08:06:03;27.31;33.61
78366;HTU21D;67641;59.864;30.464;2023-06-26T08:08:30;27.38;34.18
78366;HTU21D;67641;59.864;30.464;2023-06-26T08:10:57;27.42;35.15
78366;HTU21D;67641;59.864;30.464;2023-06-26T08:13:23;27.47;33.48
78366;HTU21D;67641;59.864;30.464;2023-06-26T08:15:50;27.54;34.63
78366;HTU21D;67641;59.864;30.464;2023-06-26T08:18:18;27.56;38.02
78366;HTU21D;67641;59.864;30.464;2023-06-26T08:20:44;27.59;37.46
78366;HTU21D;67641;59.864;30.464;2023-06-26T08:26:13;27.60;38.49
78366;HTU21D;67641;59.864;30.464;2023-06-26T08:28:40;27.67;39.57
78366;HTU21D;67641;59.864;30.464;2023-06-26T08:31:06;27.70;40.31
78366;HTU21D;67641;59.864;30.464;2023-06-26T08:34:06;27.72;37.85
78366;HTU21D;67641;59.864;30.464;2023-06-26T08:36:32;27.73;36.76
78366;HTU21D;67641;59.864;30.464;2023-06-26T08:38:59;27.82;37.91
78366;HTU21D;67641;59.864;30.464;2023-06-26T08:41:26;27.86;37.71
78366;HTU21D;67641;59.864;30.464;2023-06-26T08:46:41;27.97;38.17
78366;HTU21D;67641;59.864;30.464;2023-06-26T08:49:18;27.94;36.96
78366;HTU21D;67641;59.864;30.464;2023-06-26T08:51:52;27.94;37.25
78366;HTU21D;67641;59.864;30.464;2023-06-26T08:54:22;27.96;36.31
78366;HTU21D;67641;59.864;30.464;2023-06-26T08:56:56;28.05;36.26
78366;HTU21D;67641;59.864;30.464;2023-06-26T08:59:27;28.09;38.02
78366;HTU21D;67641;59.864;30.464;2023-06-26T09:01:54;28.15;37.10
78366;HTU21D;67641;59.864;30.464;2023-06-26T09:04:45;28.14;36.51
78366;HTU21D;67641;59.864;30.464;2023-06-26T09:07:12;28.23;35.66
78366;HTU21D;67641;59.864;30.464;2023-06-26T09:09:39;28.25;35.83
78366;HTU21D;67641;59.864;30.464;2023-06-26T09:12:09;28.27;36.97
78366;HTU21D;67641;59.864;30.464;2023-06-26T09:14:39;28.31;36.83
78366;HTU21D;67641;59.864;30.464;2023-06-26T09:17:08;28.34;37.17
78366;HTU21D;67641;59.864;30.464;2023-06-26T09:19:37;28.35;36.69
78366;HTU21D;67641;59.864;30.464;2023-06-26T09:23:41;28.40;35.82
78366;HTU21D;67641;59.864;30.464;2023-06-26T09:26:08;28.44;36.35
78366;HTU21D;67641;59.864;30.464;2023-06-26T09:28:35;28.49;35.79
78366;HTU21D;67641;59.864;30.464;2023-06-26T09:31:07;28.62;37.02
78366;HTU21D;67641;59.864;30.464;2023-06-26T09:33:38;28.73;36.47
78366;HTU21D;67641;59.864;30.464;2023-06-26T09:36:09;28.76;35.89
78366;HTU21D;67641;59.864;30.464;2023-06-26T09:42:03;29.03;37.24
78366;HTU21D;67641;59.864;30.464;2023-06-26T09:45:52;29.12;38.27
78366;HTU21D;67641;59.864;30.464;2023-06-26T09:48:20;29.23;37.52
78366;HTU21D;67641;59.864;30.464;2023-06-26T09:50:47;29.31;37.38
78366;HTU21D;67641;59.864;30.464;2023-06-26T09:53:15;29.39;36.40
78366;HTU21D;67641;59.864;30.464;2023-06-26T09:55:44;29.54;37.17
78366;HTU21D;67641;59.864;30.464;2023-06-26T09:58:11;29.75;34.47
78366;HTU21D;67641;59.864;30.464;2023-06-26T10:00:42;29.90;33.21
78366;HTU21D;67641;59.864;30.464;2023-06-26T10:03:11;29.91;32.72
78366;HTU21D;67641;59.864;30.464;2023-06-26T10:07:15;30.03;29.45
78366;HTU21D;67641;59.864;30.464;2023-06-26T10:09:44;30.08;32.62
78366;HTU21D;67641;59.864;30.464;2023-06-26T10:12:23;30.19;31.51
78366;HTU21D;67641;59.864;30.464;2023-06-26T10:14:52;30.39;31.53
78366;HTU21D;67641;59.864;30.464;2023-06-26T10:17:20;30.46;33.08
78366;HTU21D;67641;59.864;30.464;2023-06-26T10:19:48;30.52;30.48
78366;HTU21D;67641;59.864;30.464;2023-06-26T10:22:20;30.63;30.96
78366;HTU21D;67641;59.864;30.464;2023-06-26T10:27:17;30.98;34.00
78366;HTU21D;67641;59.864;30.464;2023-06-26T10:29:46;31.15;31.80
78366;HTU21D;67641;59.864;30.464;2023-06-26T10:32:14;31.30;30.32
78366;HTU21D;67641;59.864;30.464;2023-06-26T10:34:43;31.38;31.20
78366;HTU21D;67641;59.864;30.464;2023-06-26T10:37:10;31.55;32.25
78366;HTU21D;67641;59.864;30.464;2023-06-26T10:39:49;31.61;29.09
78366;HTU21D;67641;59.864;30.464;2023-06-26T10:42:22;31.76;27.44
78366;HTU21D;67641;59.864;30.464;2023-06-26T10:45:29;32.14;27.87
78366;HTU21D;67641;59.864;30.464;2023-06-26T10:47:57;32.24;31.86
78366;HTU21D;67641;59.864;30.464;2023-06-26T10:50:26;32.22;29.77
78366;HTU21D;67641;59.864;30.464;2023-06-26T10:53:24;32.38;31.02
78366;HTU21D;67641;59.864;30.464;2023-06-26T10:56:01;32.48;27.26
78366;HTU21D;67641;59.864;30.464;2023-06-26T11:01:21;33.16;27.35
78366;HTU21D;67641;59.864;30.464;2023-06-26T11:05:29;33.41;27.04
78366;HTU21D;67641;59.864;30.464;2023-06-26T11:08:09;33.64;23.48
78366;HTU21D;67641;59.864;30.464;2023-06-26T11:10:53;34.21;25.53
78366;HTU21D;67641;59.864;30.464;2023-06-26T11:13:22;34.54;22.91
78366;HTU21D;67641;59.864;30.464;2023-06-26T11:15:50;34.80;17.07
78366;HTU21D;67641;59.864;30.464;2023-06-26T11:18:17;35.49;19.90
78366;HTU21D;67641;59.864;30.464;2023-06-26T11:20:43;36.46;22.74
78366;HTU21D;67641;59.864;30.464;2023-06-26T11:28:52;40.69;13.96
78366;HTU21D;67641;59.864;30.464;2023-06-26T11:31:27;42.05;13.05
78366;HTU21D;67641;59.864;30.464;2023-06-26T11:33:54;41.74;14.17
78366;HTU21D;67641;59.864;30.464;2023-06-26T11:36:27;41.24;12.57
78366;HTU21D;67641;59.864;30.464;2023-06-26T11:39:01;40.77;12.84
78366;HTU21D;67641;59.864;30.464;2023-06-26T11:41:30;40.32;11.32
78366;HTU21D;67641;59.864;30.464;2023-06-26T11:45:12;39.93;12.39
78366;HTU21D;67641;59.864;30.464;2023-06-26T11:47:39;39.94;13.25
78366;HTU21D;67641;59.864;30.464;2023-06-26T11:50:06;39.55;12.58
78366;HTU21D;67641;59.864;30.464;2023-06-26T11:52:33;39.29;14.36
78366;HTU21D;67641;59.864;30.464;2023-06-26T11:55:00;39.06;13.96
78366;HTU21D;67641;59.864;30.464;2023-06-26T12:10:49;37.32;19.25
78366;HTU21D;67641;59.864;30.464;2023-06-26T12:13:16;37.37;20.28
78366;HTU21D;67641;59.864;30.464;2023-06-26T12:15:43;37.28;20.48
78366;HTU21D;67641;59.864;30.464;2023-06-26T12:18:09;37.18;19.48
78366;HTU21D;67641;59.864;30.464;2023-06-26T12:20:40;37.02;20.69
78366;HTU21D;67641;59.864;30.464;2023-06-26T12:23:13;36.82;21.54
78366;HTU21D;67641;59.864;30.464;2023-06-26T12:25:40;36.72;24.27
78366;HTU21D;67641;59.864;30.464;2023-06-26T12:30:07;36.66;22.27
78366;HTU21D;67641;59.864;30.464;2023-06-26T12:32:35;36.70;22.76
78366;HTU21D;67641;59.864;30.464;2023-06-26T12:38:33;36.29;20.86
78366;HTU21D;67641;59.864;30.464;2023-06-26T12:41:24;36.17;22.51
78366;HTU21D;67641;59.864;30.464;2023-06-26T12:48:15;36.07;25.27
78366;HTU21D;67641;59.864;30.464;2023-06-26T12:53:35;35.71;26.11
78366;HTU21D;67641;59.864;30.464;2023-06-26T12:56:10;35.93;26.90
78366;HTU21D;67641;59.864;30.464;2023-06-26T12:58:37;35.90;27.18
78366;HTU21D;67641;59.864;30.464;2023-06-26T13:01:05;35.92;27.31
78366;HTU21D;67641;59.864;30.464;2023-06-26T13:03:36;36.07;25.44
78366;HTU21D;67641;59.864;30.464;2023-06-26T13:06:03;36.31;25.27
78366;HTU21D;67641;59.864;30.464;2023-06-26T13:09:05;36.52;26.38
78366;HTU21D;67641;59.864;30.464;2023-06-26T13:11:33;36.60;25.95
78366;HTU21D;67641;59.864;30.464;2023-06-26T13:14:02;36.57;24.72
78366;HTU21D;67641;59.864;30.464;2023-06-26T13:16:30;36.39;25.79
78366;HTU21D;67641;59.864;30.464;2023-06-26T13:18:58;36.40;24.82
78366;HTU21D;67641;59.864;30.464;2023-06-26T13:21:43;36.46;23.91
78366;HTU21D;67641;59.864;30.464;2023-06-26T13:26:21;36.64;22.08
78366;HTU21D;67641;59.864;30.464;2023-06-26T13:28:52;36.72;20.98
78366;HTU21D;67641;59.864;30.464;2023-06-26T13:31:21;36.85;21.21
78366;HTU21D;67641;59.864;30.464;2023-06-26T13:33:59;36.83;21.23
78366;HTU21D;67641;59.864;30.464;2023-06-26T13:42:10;36.75;21.53
78366;HTU21D;67641;59.864;30.464;2023-06-26T13:44:42;36.93;21.62
78366;HTU21D;67641;59.864;30.464;2023-06-26T13:47:13;37.12;21.54
78366;HTU21D;67641;59.864;30.464;2023-06-26T13:49:42;36.86;20.56
78366;HTU21D;67641;59.864;30.464;2023-06-26T13:52:09;36.81;20.82
78366;HTU21D;67641;59.864;30.464;2023-06-26T13:54:36;36.71;20.74
78366;HTU21D;67641;59.864;30.464;2023-06-26T13:57:06;36.44;21.73
78366;HTU21D;67641;59.864;30.464;2023-06-26T14:00:37;36.32;22.02
78366;HTU21D;67641;59.864;30.464;2023-06-26T14:03:04;36.37;22.92
78366;HTU21D;67641;59.864;30.464;2023-06-26T14:05:32;36.39;23.69
78366;HTU21D;67641;59.864;30.464;2023-06-26T14:07:59;36.36;23.89
78366;HTU21D;67641;59.864;30.464;2023-06-26T14:10:26;36.27;24.04
78366;HTU21D;67641;59.864;30.464;2023-06-26T14:12:52;36.23;24.24
78366;HTU21D;67641;59.864;30.464;2023-06-26T14:15:19;36.08;24.68
78366;HTU21D;67641;59.864;30.464;2023-06-26T14:17:45;36.09;25.07
78366;HTU21D;67641;59.864;30.464;2023-06-26T14:22:04;36.03;25.62
78366;HTU21D;67641;59.864;30.464;2023-06-26T14:24:31;36.15;25.25
78366;HTU21D;67641;59.864;30.464;2023-06-26T14:26:58;36.40;25.02
78366;HTU21D;67641;59.864;30.464;2023-06-26T14:29:24;36.61;25.37
78366;HTU21D;67641;59.864;30.464;2023-06-26T14:31:51;36.49;25.15
78366;HTU21D;67641;59.864;30.464;2023-06-26T14:34:17;36.49;25.72
78366;HTU21D;67641;59.864;30.464;2023-06-26T14:36:44;36.41;25.63
78366;HTU21D;67641;59.864;30.464;2023-06-26T14:41:51;36.02;26.45
78366;HTU21D;67641;59.864;30.464;2023-06-26T14:44:18;36.11;27.07
78366;HTU21D;67641;59.864;30.464;2023-06-26T14:46:46;36.03;27.12
78366;HTU21D;67641;59.864;30.464;2023-06-26T14:49:20;35.83;27.47
78366;HTU21D;67641;59.864;30.464;2023-06-26T14:51:59;35.88;27.51
78366;HTU21D;67641;59.864;30.464;2023-06-26T14:54:39;36.06;27.20
78366;HTU21D;67641;59.864;30.464;2023-06-26T14:59:31;36.06;26.84
78366;HTU21D;67641;59.864;30.464;2023-06-26T15:02:00;35.95;26.47
78366;HTU21D;67641;59.864;30.464;2023-06-26T15:04:29;35.77;26.54
78366;HTU21D;67641;59.864;30.464;2023-06-26T15:06:58;35.49;27.27
78366;HTU21D;67641;59.864;30.464;2023-06-26T15:09:29;35.60;26.47
78366;HTU21D;67641;59.864;30.464;2023-06-26T15:12:02;35.47;26.71
78366;HTU21D;67641;59.864;30.464;2023-06-26T15:15:41;35.40;27.14
78366;HTU21D;67641;59.864;30.464;2023-06-26T15:18:18;35.38;28.11
78366;HTU21D;67641;59.864;30.464;2023-06-26T15:20:48;35.52;27.73
78366;HTU21D;67641;59.864;30.464;2023-06-26T15:23:14;35.49;27.94
78366;HTU21D;67641;59.864;30.464;2023-06-26T15:25:41;35.54;28.16
78366;HTU21D;67641;59.864;30.464;2023-06-26T15:28:07;35.58;27.50
78366;HTU21D;67641;59.864;30.464;2023-06-26T15:31:29;35.56;27.59
78366;HTU21D;67641;59.864;30.464;2023-06-26T15:33:57;35.55;26.94
78366;HTU21D;67641;59.864;30.464;2023-06-26T15:36:25;35.36;27.30
78366;HTU21D;67641;59.864;30.464;2023-06-26T15:38:51;35.25;27.58
78366;HTU21D;67641;59.864;30.464;2023-06-26T15:41:18;35.23;27.84
78366;HTU21D;67641;59.864;30.464;2023-06-26T15:43:44;35.05;27.87
78366;HTU21D;67641;59.864;30.464;2023-06-26T15:46:11;34.99;27.09
78366;HTU21D;67641;59.864;30.464;2023-06-26T15:51:16;34.52;28.56
78366;HTU21D;67641;59.864;30.464;2023-06-26T15:53:42;34.05;29.68
78366;HTU21D;67641;59.864;30.464;2023-06-26T15:56:10;33.79;29.36
78366;HTU21D;67641;59.864;30.464;2023-06-26T15:58:38;33.56;29.15
78366;HTU21D;67641;59.864;30.464;2023-06-26T16:01:09;33.34;29.90
78366;HTU21D;67641;59.864;30.464;2023-06-26T16:03:36;33.19;30.39
78366;HTU21D;67641;59.864;30.464;2023-06-26T16:06:02;32.83;31.03
78366;HTU21D;67641;59.864;30.464;2023-06-26T16:08:29;32.66;32.12
78366;HTU21D;67641;59.864;30.464;2023-06-26T16:11:17;32.42;32.85
78366;HTU21D;67641;59.864;30.464;2023-06-26T16:13:44;32.08;33.63
78366;HTU21D;67641;59.864;30.464;2023-06-26T16:16:11;31.76;33.98
78366;HTU21D;67641;59.864;30.464;2023-06-26T16:18:39;31.60;34.33
78366;HTU21D;67641;59.864;30.464;2023-06-26T16:21:08;31.65;34.40
78366;HTU21D;67641;59.864;30.464;2023-06-26T16:23:35;31.43;32.51
78366;HTU21D;67641;59.864;30.464;2023-06-26T16:26:01;31.33;33.60
78366;HTU21D;67641;59.864;30.464;2023-06-26T16:31:07;31.01;36.28
78366;HTU21D;67641;59.864;30.464;2023-06-26T16:33:34;31.07;35.95
78366;HTU21D;67641;59.864;30.464;2023-06-26T16:36:00;31.10;36.22
78366;HTU21D;67641;59.864;30.464;2023-06-26T16:38:27;31.00;36.18
78366;HTU21D;67641;59.864;30.464;2023-06-26T16:40:53;30.94;37.02
78366;HTU21D;67641;59.864;30.464;2023-06-26T16:43:20;30.93;36.72
78366;HTU21D;67641;59.864;30.464;2023-06-26T16:45:46;30.79;36.78
78366;HTU21D;67641;59.864;30.464;2023-06-26T16:50:52;30.60;37.27
78366;HTU21D;67641;59.864;30.464;2023-06-26T16:53:19;30.51;37.11
78366;HTU21D;67641;59.864;30.464;2023-06-26T16:55:45;30.46;37.33
78366;HTU21D;67641;59.864;30.464;2023-06-26T16:58:12;30.33;37.47
78366;HTU21D;67641;59.864;30.464;2023-06-26T17:00:38;30.22;38.08
78366;HTU21D;67641;59.864;30.464;2023-06-26T17:03:05;30.15;37.93
78366;HTU21D;67641;59.864;30.464;2023-06-26T17:05:32;30.19;38.61
78366;HTU21D;67641;59.864;30.464;2023-06-26T17:07:59;30.25;38.72
78366;HTU21D;67641;59.864;30.464;2023-06-26T17:11:34;30.25;39.85
78366;HTU21D;67641;59.864;30.464;2023-06-26T17:14:01;30.23;39.40